Boyd, MT (59013)

10:15 AM MDT on October 25, 2014 (GMT -0600)
NW Joliet,MT | Change Station
CLOSE
Current Station
Personal Weather Station
Location: Joliet, MT
Elevation: 4160 ft
Nearby Weather Stations

Elev 4160 ft 45.50 °N, 109.01 °W | Updated 1 second ago

Clear
Clear
48.6 °F
Feels Like 47 °F
N
3.8
Wind Variable Wind from NNW
Gusts 8.3 mph

Today
High -- | Low -- °F
--% Chance of Precip.
Yesterday
High -- | Low -- °F
Precip. -- in
7:46 AM 6:13 PM
Waxing Crescent, 3% visible
Pressure 30.05 in
Visibility 10.0 miles
Clouds Few 20000 ft
Windchill 47 °F
Dew Point 42 °F
Humidity 78%
Rainfall 0.00 in
Snow Depth Not available.
UV 0.0 out of 12
Pollen 2.00 out of 12
Air Quality Not available.
Flu Activity No Activity
METAR KBIL 251553Z 21007KT 10SM FEW200 05/01 A3002 RMK AO2 SLP174 T00500006

More Conditions Fewer Conditions

Pressure 30.05 in
Visibility 10.0 miles
Clouds Few 20000 ft
Windchill 47 °F
Dew Point 42 °F
Humidity 78%
Rainfall 0.00 in
Snow Depth Not available.
UV 0.0 out of 12
Pollen 2.00 out of 12
Air Quality Not available.
Flu Activity No Activity
METAR KBIL 251553Z 21007KT 10SM FEW200 05/01 A3002 RMK AO2 SLP174 T00500006

More Conditions Fewer Conditions

10-Day Weather Forecast

Almanac

Astronomy

Oct. 25, 2014 Rise Set
Actual Time 7:46 AM MDT 6:13 PM MDT
Civil Twilight 7:15 AM MDT 6:44 PM MDT
Nautical Twilight 6:41 AM MDT 7:18 PM MDT
Astronomical Twilight 6:06 AM MDT 7:53 PM MDT
Moon 9:31 AM MDT 7:35 PM MDT
Length of Visible Light 11h 28m
Length of Day
10h 27m
Tomorrow will be 2m 57s shorter.
Waxing Crescent, 3% of the Moon is Illuminated
Today
Waxing Crescent
Oct 30
First Quarter
Nov 6
Full
Nov 14
Last Quarter
Nov 22
New

Today's Extremes

State Highs State Lows

Community

WunderPhotos

Upload Photos

1,764,887 photos uploaded!

Nearby

Snow Depth

Station Depth Elevation
Burnt Mountain 0 in 5880 ft
Fisher Creek 1 in 9100 ft
Northeast Entrance 0 in 7350 ft
Box Canyon 0 in 6700 ft
Monument Peak 0 in 8850 ft

Earthquake Activity

City Distance Mag. Time & Date
No recent earthquake activity has been reported nearby.
Minimum magnitude displayed is 2.5.

Coastal Water Temperatures

Place Temperature
No Stations Reporting

Nearby Weather Stations